sensor_id;sensor_type;location;lat;lon;timestamp;P1;durP1;ratioP1;P2;durP2;ratioP2
72569;SDS011;60594;50.204;8.844;2023-05-09T00:00:22;16.63;;;9.80;;
72569;SDS011;60594;50.204;8.844;2023-05-09T00:03:10;17.50;;;9.95;;
72569;SDS011;60594;50.204;8.844;2023-05-09T00:05:37;15.50;;;9.88;;
72569;SDS011;60594;50.204;8.844;2023-05-09T00:08:04;18.00;;;10.00;;
72569;SDS011;60594;50.204;8.844;2023-05-09T00:10:30;16.00;;;9.48;;
72569;SDS011;60594;50.204;8.844;2023-05-09T00:12:57;14.38;;;9.10;;
72569;SDS011;60594;50.204;8.844;2023-05-09T00:15:24;15.52;;;9.45;;
72569;SDS011;60594;50.204;8.844;2023-05-09T00:17:51;17.55;;;9.82;;
72569;SDS011;60594;50.204;8.844;2023-05-09T00:20:19;16.65;;;10.77;;
72569;SDS011;60594;50.204;8.844;2023-05-09T00:22:46;18.67;;;9.95;;
72569;SDS011;60594;50.204;8.844;2023-05-09T00:25:12;16.55;;;10.07;;
72569;SDS011;60594;50.204;8.844;2023-05-09T00:27:39;15.77;;;9.80;;
72569;SDS011;60594;50.204;8.844;2023-05-09T00:30:05;15.48;;;9.23;;
72569;SDS011;60594;50.204;8.844;2023-05-09T00:32:32;15.15;;;9.32;;
72569;SDS011;60594;50.204;8.844;2023-05-09T00:34:59;16.15;;;9.55;;
72569;SDS011;60594;50.204;8.844;2023-05-09T00:37:25;15.75;;;9.73;;
72569;SDS011;60594;50.204;8.844;2023-05-09T00:39:52;17.02;;;10.85;;
72569;SDS011;60594;50.204;8.844;2023-05-09T00:42:18;16.33;;;10.27;;
72569;SDS011;60594;50.204;8.844;2023-05-09T00:44:45;16.42;;;10.13;;
72569;SDS011;60594;50.204;8.844;2023-05-09T00:47:12;15.82;;;10.00;;
72569;SDS011;60594;50.204;8.844;2023-05-09T00:49:38;16.58;;;9.40;;
72569;SDS011;60594;50.204;8.844;2023-05-09T00:52:05;17.90;;;10.55;;
72569;SDS011;60594;50.204;8.844;2023-05-09T00:54:31;16.83;;;10.48;;
72569;SDS011;60594;50.204;8.844;2023-05-09T00:56:58;18.15;;;10.10;;
72569;SDS011;60594;50.204;8.844;2023-05-09T00:59:25;15.10;;;9.57;;
72569;SDS011;60594;50.204;8.844;2023-05-09T01:01:52;18.67;;;10.27;;
72569;SDS011;60594;50.204;8.844;2023-05-09T01:04:18;16.83;;;10.65;;
72569;SDS011;60594;50.204;8.844;2023-05-09T01:06:49;15.77;;;10.02;;
72569;SDS011;60594;50.204;8.844;2023-05-09T01:15:19;14.70;;;9.00;;
72569;SDS011;60594;50.204;8.844;2023-05-09T01:17:49;16.15;;;9.45;;
72569;SDS011;60594;50.204;8.844;2023-05-09T01:25:54;15.60;;;8.80;;
72569;SDS011;60594;50.204;8.844;2023-05-09T01:30:56;19.08;;;9.80;;
72569;SDS011;60594;50.204;8.844;2023-05-09T01:33:24;15.88;;;9.32;;
72569;SDS011;60594;50.204;8.844;2023-05-09T01:35:55;13.63;;;9.23;;
72569;SDS011;60594;50.204;8.844;2023-05-09T01:38:26;15.77;;;9.00;;
72569;SDS011;60594;50.204;8.844;2023-05-09T01:40:56;14.88;;;8.65;;
72569;SDS011;60594;50.204;8.844;2023-05-09T01:43:26;16.60;;;9.73;;
72569;SDS011;60594;50.204;8.844;2023-05-09T01:45:54;16.25;;;9.73;;
72569;SDS011;60594;50.204;8.844;2023-05-09T01:48:23;14.40;;;8.68;;
72569;SDS011;60594;50.204;8.844;2023-05-09T01:50:55;15.38;;;8.90;;
72569;SDS011;60594;50.204;8.844;2023-05-09T01:53:23;14.60;;;8.90;;
72569;SDS011;60594;50.204;8.844;2023-05-09T01:55:52;15.85;;;9.30;;
72569;SDS011;60594;50.204;8.844;2023-05-09T01:58:20;17.00;;;10.07;;
72569;SDS011;60594;50.204;8.844;2023-05-09T02:00:47;17.63;;;9.73;;
72569;SDS011;60594;50.204;8.844;2023-05-09T02:03:16;18.52;;;10.15;;
72569;SDS011;60594;50.204;8.844;2023-05-09T02:05:43;17.67;;;9.55;;
72569;SDS011;60594;50.204;8.844;2023-05-09T02:08:12;17.40;;;9.20;;
72569;SDS011;60594;50.204;8.844;2023-05-09T02:10:40;18.05;;;9.65;;
72569;SDS011;60594;50.204;8.844;2023-05-09T02:13:07;18.10;;;11.38;;
72569;SDS011;60594;50.204;8.844;2023-05-09T02:15:34;18.25;;;10.50;;
72569;SDS011;60594;50.204;8.844;2023-05-09T02:18:00;17.92;;;10.38;;
72569;SDS011;60594;50.204;8.844;2023-05-09T02:20:27;19.45;;;10.45;;
72569;SDS011;60594;50.204;8.844;2023-05-09T02:22:53;21.67;;;11.07;;
72569;SDS011;60594;50.204;8.844;2023-05-09T02:25:20;19.45;;;10.60;;
72569;SDS011;60594;50.204;8.844;2023-05-09T02:27:46;20.27;;;10.95;;
72569;SDS011;60594;50.204;8.844;2023-05-09T02:30:18;20.00;;;11.18;;
72569;SDS011;60594;50.204;8.844;2023-05-09T02:32:51;21.77;;;11.32;;
72569;SDS011;60594;50.204;8.844;2023-05-09T02:35:21;22.35;;;11.70;;
72569;SDS011;60594;50.204;8.844;2023-05-09T02:37:50;21.08;;;10.77;;
72569;SDS011;60594;50.204;8.844;2023-05-09T02:40:18;22.50;;;11.65;;
72569;SDS011;60594;50.204;8.844;2023-05-09T02:45:11;19.02;;;11.07;;
72569;SDS011;60594;50.204;8.844;2023-05-09T02:47:38;19.63;;;11.18;;
72569;SDS011;60594;50.204;8.844;2023-05-09T02:50:04;20.05;;;10.90;;
72569;SDS011;60594;50.204;8.844;2023-05-09T02:52:32;19.15;;;10.52;;
72569;SDS011;60594;50.204;8.844;2023-05-09T02:54:59;21.73;;;12.23;;
72569;SDS011;60594;50.204;8.844;2023-05-09T02:57:25;19.17;;;10.43;;
72569;SDS011;60594;50.204;8.844;2023-05-09T02:59:52;23.88;;;11.57;;
72569;SDS011;60594;50.204;8.844;2023-05-09T03:02:18;22.80;;;12.05;;
72569;SDS011;60594;50.204;8.844;2023-05-09T03:04:45;20.17;;;11.30;;
72569;SDS011;60594;50.204;8.844;2023-05-09T03:07:12;22.98;;;11.82;;
72569;SDS011;60594;50.204;8.844;2023-05-09T03:09:38;22.25;;;12.63;;
72569;SDS011;60594;50.204;8.844;2023-05-09T03:12:05;23.48;;;12.95;;
72569;SDS011;60594;50.204;8.844;2023-05-09T03:14:31;21.92;;;11.45;;
72569;SDS011;60594;50.204;8.844;2023-05-09T03:16:59;23.70;;;12.43;;
72569;SDS011;60594;50.204;8.844;2023-05-09T03:19:31;21.63;;;11.40;;
72569;SDS011;60594;50.204;8.844;2023-05-09T03:21:59;22.88;;;12.27;;
72569;SDS011;60594;50.204;8.844;2023-05-09T03:24:26;24.92;;;11.65;;
72569;SDS011;60594;50.204;8.844;2023-05-09T03:26:53;21.60;;;11.82;;
72569;SDS011;60594;50.204;8.844;2023-05-09T03:29:20;22.67;;;13.00;;
72569;SDS011;60594;50.204;8.844;2023-05-09T03:31:46;22.35;;;11.13;;
72569;SDS011;60594;50.204;8.844;2023-05-09T03:34:13;21.48;;;11.40;;
72569;SDS011;60594;50.204;8.844;2023-05-09T03:36:41;22.42;;;12.05;;
72569;SDS011;60594;50.204;8.844;2023-05-09T03:39:12;22.52;;;12.57;;
72569;SDS011;60594;50.204;8.844;2023-05-09T03:41:42;21.38;;;11.48;;
72569;SDS011;60594;50.204;8.844;2023-05-09T03:44:09;22.90;;;12.27;;
72569;SDS011;60594;50.204;8.844;2023-05-09T03:46:36;23.30;;;12.57;;
72569;SDS011;60594;50.204;8.844;2023-05-09T03:49:02;19.98;;;11.75;;
72569;SDS011;60594;50.204;8.844;2023-05-09T03:51:30;21.75;;;11.43;;
72569;SDS011;60594;50.204;8.844;2023-05-09T03:53:58;19.88;;;11.68;;
72569;SDS011;60594;50.204;8.844;2023-05-09T03:56:25;22.40;;;11.85;;
72569;SDS011;60594;50.204;8.844;2023-05-09T03:58:51;23.10;;;12.70;;
72569;SDS011;60594;50.204;8.844;2023-05-09T04:01:18;20.85;;;11.60;;
72569;SDS011;60594;50.204;8.844;2023-05-09T04:03:45;22.33;;;12.18;;
72569;SDS011;60594;50.204;8.844;2023-05-09T04:06:14;21.23;;;12.00;;
72569;SDS011;60594;50.204;8.844;2023-05-09T04:08:43;19.58;;;11.52;;
72569;SDS011;60594;50.204;8.844;2023-05-09T04:11:10;19.17;;;11.52;;
72569;SDS011;60594;50.204;8.844;2023-05-09T04:13:38;20.30;;;11.02;;
72569;SDS011;60594;50.204;8.844;2023-05-09T04:16:13;19.30;;;11.77;;
72569;SDS011;60594;50.204;8.844;2023-05-09T04:18:39;20.95;;;11.38;;
72569;SDS011;60594;50.204;8.844;2023-05-09T04:21:07;21.20;;;11.07;;
72569;SDS011;60594;50.204;8.844;2023-05-09T04:23:34;19.85;;;10.85;;
72569;SDS011;60594;50.204;8.844;2023-05-09T04:26:02;19.80;;;11.63;;
72569;SDS011;60594;50.204;8.844;2023-05-09T04:28:28;22.17;;;11.80;;
72569;SDS011;60594;50.204;8.844;2023-05-09T04:30:56;21.77;;;11.45;;
72569;SDS011;60594;50.204;8.844;2023-05-09T04:33:23;24.58;;;12.63;;
72569;SDS011;60594;50.204;8.844;2023-05-09T04:35:51;19.58;;;11.10;;
72569;SDS011;60594;50.204;8.844;2023-05-09T04:38:19;18.95;;;11.20;;
72569;SDS011;60594;50.204;8.844;2023-05-09T04:40:46;21.92;;;11.05;;
72569;SDS011;60594;50.204;8.844;2023-05-09T04:43:13;21.15;;;12.20;;
72569;SDS011;60594;50.204;8.844;2023-05-09T04:45:40;22.00;;;11.30;;
72569;SDS011;60594;50.204;8.844;2023-05-09T04:48:06;22.25;;;12.20;;
72569;SDS011;60594;50.204;8.844;2023-05-09T04:50:33;21.80;;;12.60;;
72569;SDS011;60594;50.204;8.844;2023-05-09T04:52:59;24.05;;;12.90;;
72569;SDS011;60594;50.204;8.844;2023-05-09T04:55:26;22.50;;;12.18;;
72569;SDS011;60594;50.204;8.844;2023-05-09T05:00:21;21.70;;;11.38;;
72569;SDS011;60594;50.204;8.844;2023-05-09T05:02:48;21.15;;;11.63;;
72569;SDS011;60594;50.204;8.844;2023-05-09T05:05:15;19.02;;;11.18;;
72569;SDS011;60594;50.204;8.844;2023-05-09T05:07:43;20.48;;;11.45;;
72569;SDS011;60594;50.204;8.844;2023-05-09T05:10:12;20.95;;;11.40;;
72569;SDS011;60594;50.204;8.844;2023-05-09T05:12:41;19.23;;;11.07;;
72569;SDS011;60594;50.204;8.844;2023-05-09T05:15:11;22.17;;;11.98;;
72569;SDS011;60594;50.204;8.844;2023-05-09T05:17:39;21.02;;;11.40;;
72569;SDS011;60594;50.204;8.844;2023-05-09T05:20:07;20.90;;;12.27;;
72569;SDS011;60594;50.204;8.844;2023-05-09T05:22:36;20.52;;;10.95;;
72569;SDS011;60594;50.204;8.844;2023-05-09T05:25:03;17.67;;;11.15;;
72569;SDS011;60594;50.204;8.844;2023-05-09T05:27:30;20.88;;;11.82;;
72569;SDS011;60594;50.204;8.844;2023-05-09T05:29:57;19.17;;;10.65;;
72569;SDS011;60594;50.204;8.844;2023-05-09T05:32:23;20.95;;;11.20;;
72569;SDS011;60594;50.204;8.844;2023-05-09T05:34:51;22.63;;;11.63;;
72569;SDS011;60594;50.204;8.844;2023-05-09T05:37:18;19.70;;;11.10;;
72569;SDS011;60594;50.204;8.844;2023-05-09T05:39:44;21.25;;;11.13;;
72569;SDS011;60594;50.204;8.844;2023-05-09T05:42:11;19.13;;;10.63;;
72569;SDS011;60594;50.204;8.844;2023-05-09T05:44:38;19.85;;;11.13;;
72569;SDS011;60594;50.204;8.844;2023-05-09T05:47:05;20.15;;;11.45;;
72569;SDS011;60594;50.204;8.844;2023-05-09T05:49:31;19.20;;;11.05;;
72569;SDS011;60594;50.204;8.844;2023-05-09T05:51:58;19.15;;;10.60;;
72569;SDS011;60594;50.204;8.844;2023-05-09T05:54:25;20.30;;;11.25;;
72569;SDS011;60594;50.204;8.844;2023-05-09T05:56:53;20.60;;;11.20;;
72569;SDS011;60594;50.204;8.844;2023-05-09T05:59:20;18.88;;;10.70;;
72569;SDS011;60594;50.204;8.844;2023-05-09T06:01:47;19.90;;;11.27;;
72569;SDS011;60594;50.204;8.844;2023-05-09T06:04:14;17.30;;;10.55;;
72569;SDS011;60594;50.204;8.844;2023-05-09T06:06:41;17.63;;;10.02;;
72569;SDS011;60594;50.204;8.844;2023-05-09T06:09:08;18.05;;;10.65;;
72569;SDS011;60594;50.204;8.844;2023-05-09T06:11:35;17.25;;;10.85;;
72569;SDS011;60594;50.204;8.844;2023-05-09T06:14:03;16.40;;;10.30;;
72569;SDS011;60594;50.204;8.844;2023-05-09T06:16:29;19.00;;;10.98;;
72569;SDS011;60594;50.204;8.844;2023-05-09T06:18:56;18.13;;;10.30;;
72569;SDS011;60594;50.204;8.844;2023-05-09T06:21:22;20.67;;;10.48;;
72569;SDS011;60594;50.204;8.844;2023-05-09T06:23:49;18.10;;;10.57;;
72569;SDS011;60594;50.204;8.844;2023-05-09T06:26:16;20.48;;;10.95;;
72569;SDS011;60594;50.204;8.844;2023-05-09T06:28:43;21.25;;;11.30;;
72569;SDS011;60594;50.204;8.844;2023-05-09T06:31:09;20.23;;;11.80;;
72569;SDS011;60594;50.204;8.844;2023-05-09T06:33:36;20.15;;;11.40;;
72569;SDS011;60594;50.204;8.844;2023-05-09T06:36:02;19.65;;;11.73;;
72569;SDS011;60594;50.204;8.844;2023-05-09T06:38:29;18.90;;;11.05;;
72569;SDS011;60594;50.204;8.844;2023-05-09T06:40:55;20.58;;;11.50;;
72569;SDS011;60594;50.204;8.844;2023-05-09T06:43:22;18.85;;;10.68;;
72569;SDS011;60594;50.204;8.844;2023-05-09T06:45:48;19.00;;;11.32;;
72569;SDS011;60594;50.204;8.844;2023-05-09T06:48:15;18.35;;;10.93;;
72569;SDS011;60594;50.204;8.844;2023-05-09T06:50:41;18.85;;;10.93;;
72569;SDS011;60594;50.204;8.844;2023-05-09T06:53:08;19.52;;;10.80;;
72569;SDS011;60594;50.204;8.844;2023-05-09T06:55:34;15.70;;;9.65;;
72569;SDS011;60594;50.204;8.844;2023-05-09T06:58:02;18.77;;;11.43;;
72569;SDS011;60594;50.204;8.844;2023-05-09T07:00:28;18.77;;;10.63;;
72569;SDS011;60594;50.204;8.844;2023-05-09T07:02:55;23.05;;;12.48;;
72569;SDS011;60594;50.204;8.844;2023-05-09T07:05:21;18.27;;;9.77;;
72569;SDS011;60594;50.204;8.844;2023-05-09T07:07:48;17.45;;;10.35;;
72569;SDS011;60594;50.204;8.844;2023-05-09T07:10:15;17.52;;;10.73;;
72569;SDS011;60594;50.204;8.844;2023-05-09T07:12:42;20.13;;;11.57;;
72569;SDS011;60594;50.204;8.844;2023-05-09T07:15:08;20.33;;;11.15;;
72569;SDS011;60594;50.204;8.844;2023-05-09T07:17:36;20.45;;;11.13;;
72569;SDS011;60594;50.204;8.844;2023-05-09T07:20:02;17.38;;;9.63;;
72569;SDS011;60594;50.204;8.844;2023-05-09T07:22:30;18.13;;;10.63;;
72569;SDS011;60594;50.204;8.844;2023-05-09T07:24:56;18.33;;;10.30;;
72569;SDS011;60594;50.204;8.844;2023-05-09T07:27:23;17.77;;;10.70;;
72569;SDS011;60594;50.204;8.844;2023-05-09T07:29:49;17.77;;;10.57;;
72569;SDS011;60594;50.204;8.844;2023-05-09T07:32:18;18.05;;;10.70;;
72569;SDS011;60594;50.204;8.844;2023-05-09T07:34:44;17.60;;;10.30;;
72569;SDS011;60594;50.204;8.844;2023-05-09T07:37:11;18.38;;;10.85;;
72569;SDS011;60594;50.204;8.844;2023-05-09T07:39:37;18.75;;;10.70;;
72569;SDS011;60594;50.204;8.844;2023-05-09T07:42:04;18.63;;;10.40;;
72569;SDS011;60594;50.204;8.844;2023-05-09T07:44:30;19.00;;;10.35;;
72569;SDS011;60594;50.204;8.844;2023-05-09T07:46:57;18.58;;;10.82;;
72569;SDS011;60594;50.204;8.844;2023-05-09T07:49:27;18.30;;;10.43;;
72569;SDS011;60594;50.204;8.844;2023-05-09T07:51:54;17.55;;;9.82;;
72569;SDS011;60594;50.204;8.844;2023-05-09T07:54:20;18.98;;;10.85;;
72569;SDS011;60594;50.204;8.844;2023-05-09T07:56:46;16.90;;;10.00;;
72569;SDS011;60594;50.204;8.844;2023-05-09T07:59:13;18.38;;;10.05;;
72569;SDS011;60594;50.204;8.844;2023-05-09T08:01:39;18.75;;;10.10;;
72569;SDS011;60594;50.204;8.844;2023-05-09T08:04:06;16.48;;;9.95;;
72569;SDS011;60594;50.204;8.844;2023-05-09T08:06:34;20.35;;;10.65;;
72569;SDS011;60594;50.204;8.844;2023-05-09T08:09:01;17.30;;;9.68;;
72569;SDS011;60594;50.204;8.844;2023-05-09T08:11:33;18.10;;;10.38;;
72569;SDS011;60594;50.204;8.844;2023-05-09T08:14:00;17.20;;;9.95;;
72569;SDS011;60594;50.204;8.844;2023-05-09T08:16:27;18.90;;;10.77;;
72569;SDS011;60594;50.204;8.844;2023-05-09T08:18:54;17.80;;;10.40;;
72569;SDS011;60594;50.204;8.844;2023-05-09T08:21:20;17.05;;;9.82;;
72569;SDS011;60594;50.204;8.844;2023-05-09T08:23:47;17.17;;;9.73;;
72569;SDS011;60594;50.204;8.844;2023-05-09T08:26:13;17.55;;;10.30;;
72569;SDS011;60594;50.204;8.844;2023-05-09T08:28:40;18.55;;;10.48;;
72569;SDS011;60594;50.204;8.844;2023-05-09T08:31:06;17.95;;;9.73;;
72569;SDS011;60594;50.204;8.844;2023-05-09T08:33:33;18.45;;;10.18;;
72569;SDS011;60594;50.204;8.844;2023-05-09T08:36:00;17.63;;;9.73;;
72569;SDS011;60594;50.204;8.844;2023-05-09T08:38:26;15.98;;;9.27;;
72569;SDS011;60594;50.204;8.844;2023-05-09T08:41:00;17.48;;;10.23;;
72569;SDS011;60594;50.204;8.844;2023-05-09T08:43:27;15.73;;;9.10;;
72569;SDS011;60594;50.204;8.844;2023-05-09T08:45:56;15.07;;;9.18;;
72569;SDS011;60594;50.204;8.844;2023-05-09T08:48:25;19.48;;;11.77;;
72569;SDS011;60594;50.204;8.844;2023-05-09T08:50:54;18.05;;;11.23;;
72569;SDS011;60594;50.204;8.844;2023-05-09T08:53:21;21.25;;;11.02;;
72569;SDS011;60594;50.204;8.844;2023-05-09T08:55:49;17.85;;;10.52;;
72569;SDS011;60594;50.204;8.844;2023-05-09T08:58:15;19.85;;;10.32;;
72569;SDS011;60594;50.204;8.844;2023-05-09T09:00:45;17.80;;;10.07;;
72569;SDS011;60594;50.204;8.844;2023-05-09T09:03:12;19.33;;;9.90;;
72569;SDS011;60594;50.204;8.844;2023-05-09T09:05:41;17.80;;;9.85;;
72569;SDS011;60594;50.204;8.844;2023-05-09T09:08:08;17.20;;;10.00;;
72569;SDS011;60594;50.204;8.844;2023-05-09T09:10:38;16.45;;;9.82;;
72569;SDS011;60594;50.204;8.844;2023-05-09T09:13:06;16.80;;;10.07;;
72569;SDS011;60594;50.204;8.844;2023-05-09T09:15:35;17.17;;;10.02;;
72569;SDS011;60594;50.204;8.844;2023-05-09T09:18:06;17.33;;;9.50;;
72569;SDS011;60594;50.204;8.844;2023-05-09T09:20:45;14.77;;;9.18;;
72569;SDS011;60594;50.204;8.844;2023-05-09T09:23:23;17.02;;;10.05;;
72569;SDS011;60594;50.204;8.844;2023-05-09T09:25:57;15.85;;;9.18;;
72569;SDS011;60594;50.204;8.844;2023-05-09T09:28:26;16.73;;;10.10;;
72569;SDS011;60594;50.204;8.844;2023-05-09T09:30:53;18.25;;;9.80;;
72569;SDS011;60594;50.204;8.844;2023-05-09T09:33:20;15.35;;;9.02;;
72569;SDS011;60594;50.204;8.844;2023-05-09T09:35:48;14.20;;;8.80;;
72569;SDS011;60594;50.204;8.844;2023-05-09T09:38:16;14.13;;;9.07;;
72569;SDS011;60594;50.204;8.844;2023-05-09T09:40:48;15.55;;;9.60;;
72569;SDS011;60594;50.204;8.844;2023-05-09T09:43:14;15.10;;;8.82;;
72569;SDS011;60594;50.204;8.844;2023-05-09T09:45:41;18.70;;;9.80;;
72569;SDS011;60594;50.204;8.844;2023-05-09T09:48:08;16.23;;;9.30;;
72569;SDS011;60594;50.204;8.844;2023-05-09T09:50:34;16.15;;;9.30;;
72569;SDS011;60594;50.204;8.844;2023-05-09T09:53:01;16.13;;;9.32;;
72569;SDS011;60594;50.204;8.844;2023-05-09T09:55:30;17.48;;;9.27;;
72569;SDS011;60594;50.204;8.844;2023-05-09T09:57:57;14.85;;;8.55;;
72569;SDS011;60594;50.204;8.844;2023-05-09T10:00:24;13.70;;;8.63;;
72569;SDS011;60594;50.204;8.844;2023-05-09T10:02:56;18.50;;;10.13;;
72569;SDS011;60594;50.204;8.844;2023-05-09T10:05:24;17.92;;;9.23;;
72569;SDS011;60594;50.204;8.844;2023-05-09T10:08:02;16.08;;;9.02;;
72569;SDS011;60594;50.204;8.844;2023-05-09T10:10:30;18.95;;;9.73;;
72569;SDS011;60594;50.204;8.844;2023-05-09T10:12:59;16.75;;;9.82;;
72569;SDS011;60594;50.204;8.844;2023-05-09T10:15:29;15.25;;;9.15;;
72569;SDS011;60594;50.204;8.844;2023-05-09T10:17:57;18.23;;;9.30;;
72569;SDS011;60594;50.204;8.844;2023-05-09T10:20:26;16.30;;;9.43;;
72569;SDS011;60594;50.204;8.844;2023-05-09T10:22:55;16.08;;;8.65;;
72569;SDS011;60594;50.204;8.844;2023-05-09T10:25:38;15.77;;;8.93;;
72569;SDS011;60594;50.204;8.844;2023-05-09T10:28:10;14.95;;;8.95;;
72569;SDS011;60594;50.204;8.844;2023-05-09T10:31:00;14.93;;;9.13;;
72569;SDS011;60594;50.204;8.844;2023-05-09T10:33:30;16.10;;;8.57;;
72569;SDS011;60594;50.204;8.844;2023-05-09T10:36:03;14.45;;;8.77;;
72569;SDS011;60594;50.204;8.844;2023-05-09T10:38:31;16.33;;;9.98;;
72569;SDS011;60594;50.204;8.844;2023-05-09T10:40:57;15.50;;;8.82;;
72569;SDS011;60594;50.204;8.844;2023-05-09T10:43:24;16.08;;;8.80;;
72569;SDS011;60594;50.204;8.844;2023-05-09T10:45:51;15.38;;;8.82;;
72569;SDS011;60594;50.204;8.844;2023-05-09T10:48:18;14.43;;;8.48;;
72569;SDS011;60594;50.204;8.844;2023-05-09T10:50:45;14.77;;;8.63;;
72569;SDS011;60594;50.204;8.844;2023-05-09T10:53:12;13.95;;;8.30;;
72569;SDS011;60594;50.204;8.844;2023-05-09T10:55:56;14.65;;;8.38;;
72569;SDS011;60594;50.204;8.844;2023-05-09T10:58:26;11.93;;;7.43;;
72569;SDS011;60594;50.204;8.844;2023-05-09T11:00:59;13.50;;;7.97;;
72569;SDS011;60594;50.204;8.844;2023-05-09T11:03:27;12.18;;;7.90;;
72569;SDS011;60594;50.204;8.844;2023-05-09T11:05:55;12.57;;;7.15;;
72569;SDS011;60594;50.204;8.844;2023-05-09T11:08:23;11.40;;;6.82;;
72569;SDS011;60594;50.204;8.844;2023-05-09T11:10:55;10.98;;;6.68;;
72569;SDS011;60594;50.204;8.844;2023-05-09T11:13:29;11.93;;;6.65;;
72569;SDS011;60594;50.204;8.844;2023-05-09T11:18:27;11.82;;;7.25;;
72569;SDS011;60594;50.204;8.844;2023-05-09T11:20:54;13.35;;;6.75;;
72569;SDS011;60594;50.204;8.844;2023-05-09T11:23:24;10.43;;;6.65;;
72569;SDS011;60594;50.204;8.844;2023-05-09T11:25:52;12.00;;;6.78;;
72569;SDS011;60594;50.204;8.844;2023-05-09T11:28:29;9.88;;;6.40;;
72569;SDS011;60594;50.204;8.844;2023-05-09T11:31:16;9.05;;;5.57;;
72569;SDS011;60594;50.204;8.844;2023-05-09T11:33:44;8.60;;;5.32;;
72569;SDS011;60594;50.204;8.844;2023-05-09T11:38:45;11.43;;;5.38;;
72569;SDS011;60594;50.204;8.844;2023-05-09T11:41:13;8.13;;;6.10;;
72569;SDS011;60594;50.204;8.844;2023-05-09T11:43:41;9.35;;;5.38;;
72569;SDS011;60594;50.204;8.844;2023-05-09T11:46:09;8.85;;;5.10;;
72569;SDS011;60594;50.204;8.844;2023-05-09T11:48:37;9.07;;;4.75;;
72569;SDS011;60594;50.204;8.844;2023-05-09T11:51:04;8.38;;;4.80;;
72569;SDS011;60594;50.204;8.844;2023-05-09T11:53:32;8.75;;;5.18;;
72569;SDS011;60594;50.204;8.844;2023-05-09T11:56:02;9.70;;;5.15;;
72569;SDS011;60594;50.204;8.844;2023-05-09T11:58:29;7.97;;;4.90;;
72569;SDS011;60594;50.204;8.844;2023-05-09T12:00:56;8.13;;;4.50;;
72569;SDS011;60594;50.204;8.844;2023-05-09T12:03:23;8.30;;;4.93;;
72569;SDS011;60594;50.204;8.844;2023-05-09T12:05:50;7.25;;;4.60;;
72569;SDS011;60594;50.204;8.844;2023-05-09T12:08:17;7.93;;;4.55;;
72569;SDS011;60594;50.204;8.844;2023-05-09T12:10:43;8.77;;;4.68;;
72569;SDS011;60594;50.204;8.844;2023-05-09T12:13:10;8.00;;;5.03;;
72569;SDS011;60594;50.204;8.844;2023-05-09T12:15:36;8.77;;;5.00;;
72569;SDS011;60594;50.204;8.844;2023-05-09T12:18:03;7.07;;;4.60;;
72569;SDS011;60594;50.204;8.844;2023-05-09T12:20:40;10.02;;;5.07;;
72569;SDS011;60594;50.204;8.844;2023-05-09T12:23:18;10.00;;;5.20;;
72569;SDS011;60594;50.204;8.844;2023-05-09T12:25:54;9.93;;;5.70;;
72569;SDS011;60594;50.204;8.844;2023-05-09T12:28:21;9.00;;;5.45;;
72569;SDS011;60594;50.204;8.844;2023-05-09T12:30:49;9.23;;;5.68;;
72569;SDS011;60594;50.204;8.844;2023-05-09T12:33:16;9.88;;;5.55;;
72569;SDS011;60594;50.204;8.844;2023-05-09T12:35:44;9.75;;;5.90;;
72569;SDS011;60594;50.204;8.844;2023-05-09T12:38:21;9.45;;;6.32;;
72569;SDS011;60594;50.204;8.844;2023-05-09T12:40:48;10.98;;;6.57;;
72569;SDS011;60594;50.204;8.844;2023-05-09T12:43:25;9.68;;;6.55;;
72569;SDS011;60594;50.204;8.844;2023-05-09T12:45:52;9.50;;;5.47;;
72569;SDS011;60594;50.204;8.844;2023-05-09T12:48:21;12.48;;;5.63;;
72569;SDS011;60594;50.204;8.844;2023-05-09T12:50:48;7.78;;;4.72;;
72569;SDS011;60594;50.204;8.844;2023-05-09T12:53:22;8.50;;;5.20;;
72569;SDS011;60594;50.204;8.844;2023-05-09T12:55:55;8.57;;;5.30;;
72569;SDS011;60594;50.204;8.844;2023-05-09T12:58:31;8.90;;;4.63;;
72569;SDS011;60594;50.204;8.844;2023-05-09T13:00:58;7.63;;;4.50;;
72569;SDS011;60594;50.204;8.844;2023-05-09T13:03:28;9.32;;;4.68;;
72569;SDS011;60594;50.204;8.844;2023-05-09T13:06:03;9.90;;;5.47;;
72569;SDS011;60594;50.204;8.844;2023-05-09T13:08:31;8.40;;;6.07;;
72569;SDS011;60594;50.204;8.844;2023-05-09T13:10:58;7.95;;;4.97;;
72569;SDS011;60594;50.204;8.844;2023-05-09T13:13:25;8.85;;;5.07;;
72569;SDS011;60594;50.204;8.844;2023-05-09T13:15:53;8.10;;;5.20;;
72569;SDS011;60594;50.204;8.844;2023-05-09T13:18:20;7.10;;;4.82;;
72569;SDS011;60594;50.204;8.844;2023-05-09T13:20:51;7.72;;;4.25;;
72569;SDS011;60594;50.204;8.844;2023-05-09T13:23:17;7.85;;;4.88;;
72569;SDS011;60594;50.204;8.844;2023-05-09T13:25:44;7.35;;;4.72;;
72569;SDS011;60594;50.204;8.844;2023-05-09T13:28:11;7.13;;;4.25;;
72569;SDS011;60594;50.204;8.844;2023-05-09T13:30:37;7.72;;;4.32;;
72569;SDS011;60594;50.204;8.844;2023-05-09T13:33:04;7.40;;;4.40;;
72569;SDS011;60594;50.204;8.844;2023-05-09T13:35:30;9.07;;;4.85;;
72569;SDS011;60594;50.204;8.844;2023-05-09T13:37:56;8.40;;;4.75;;
72569;SDS011;60594;50.204;8.844;2023-05-09T13:40:24;8.73;;;5.32;;
72569;SDS011;60594;50.204;8.844;2023-05-09T13:42:50;7.32;;;4.72;;
72569;SDS011;60594;50.204;8.844;2023-05-09T13:45:17;8.43;;;4.68;;
72569;SDS011;60594;50.204;8.844;2023-05-09T13:47:43;7.85;;;5.25;;
72569;SDS011;60594;50.204;8.844;2023-05-09T13:50:10;8.23;;;4.47;;
72569;SDS011;60594;50.204;8.844;2023-05-09T13:52:36;7.13;;;4.50;;
72569;SDS011;60594;50.204;8.844;2023-05-09T13:55:03;7.80;;;5.28;;
72569;SDS011;60594;50.204;8.844;2023-05-09T13:57:29;8.07;;;4.68;;
72569;SDS011;60594;50.204;8.844;2023-05-09T13:59:56;7.05;;;4.80;;
72569;SDS011;60594;50.204;8.844;2023-05-09T14:02:22;7.95;;;5.05;;
72569;SDS011;60594;50.204;8.844;2023-05-09T14:04:49;9.23;;;4.57;;
72569;SDS011;60594;50.204;8.844;2023-05-09T14:07:16;8.35;;;5.10;;
72569;SDS011;60594;50.204;8.844;2023-05-09T14:09:43;6.72;;;4.32;;
72569;SDS011;60594;50.204;8.844;2023-05-09T14:12:09;10.70;;;7.75;;
72569;SDS011;60594;50.204;8.844;2023-05-09T14:14:35;11.45;;;6.93;;
72569;SDS011;60594;50.204;8.844;2023-05-09T14:17:02;12.70;;;7.57;;
72569;SDS011;60594;50.204;8.844;2023-05-09T14:19:29;12.85;;;7.40;;
72569;SDS011;60594;50.204;8.844;2023-05-09T14:21:56;10.30;;;7.07;;
72569;SDS011;60594;50.204;8.844;2023-05-09T14:24:22;11.25;;;7.30;;
72569;SDS011;60594;50.204;8.844;2023-05-09T14:26:49;12.68;;;7.65;;
72569;SDS011;60594;50.204;8.844;2023-05-09T14:29:15;15.02;;;8.30;;
72569;SDS011;60594;50.204;8.844;2023-05-09T14:31:42;11.73;;;7.82;;
72569;SDS011;60594;50.204;8.844;2023-05-09T14:34:08;12.35;;;6.88;;
72569;SDS011;60594;50.204;8.844;2023-05-09T14:36:35;11.60;;;7.80;;
72569;SDS011;60594;50.204;8.844;2023-05-09T14:39:02;11.93;;;6.95;;
72569;SDS011;60594;50.204;8.844;2023-05-09T14:41:29;11.45;;;7.60;;
72569;SDS011;60594;50.204;8.844;2023-05-09T14:43:55;12.50;;;7.53;;
72569;SDS011;60594;50.204;8.844;2023-05-09T14:46:22;13.38;;;7.68;;
72569;SDS011;60594;50.204;8.844;2023-05-09T14:48:50;11.85;;;7.43;;
72569;SDS011;60594;50.204;8.844;2023-05-09T14:51:17;11.05;;;6.80;;
72569;SDS011;60594;50.204;8.844;2023-05-09T14:53:44;12.27;;;7.00;;
72569;SDS011;60594;50.204;8.844;2023-05-09T14:56:11;13.32;;;6.97;;
72569;SDS011;60594;50.204;8.844;2023-05-09T14:58:38;11.75;;;6.97;;